Booth, Alabama
Current Conditions -  °F | °C
As of 7:35 AM on Wednesday 26 Nov 2014 (Local Time) from K1A9 Reporting Station
Clear Clear  
Wind Chill: 33°   Ceiling: Unl
Heat Index: 38°   Visibility: 10mi
Dew Point: 31°   Wind: 7mph
Humidity: 75%   Direction: 270°W
Pressure: 30.18"   Gusts: NA
Location:  32.5°N, 86.57°W
Report Text: K1A9 261335Z AUTO 27006KT 10SM CLR 04/00 A3018 RMK AO2 T00361005
Loading
Personal Weather Stations






























Interactive Weather Map New forecast layout! Learn more

10-Day Weather Forecast

Advertisements
Track Severe Weather on mobile